createdAt,value
2023-03-21T00:02:34.482Z,27.02
2023-03-21T00:05:20.924Z,32.17
2023-03-21T00:08:06.908Z,33.17
2023-03-21T00:11:04.463Z,26.35
2023-03-21T00:13:50.618Z,29.55
2023-03-21T00:16:37.754Z,36.05
2023-03-21T00:19:26.551Z,27.73
2023-03-21T00:22:12.280Z,29.85
2023-03-21T00:24:58.062Z,29.25
2023-03-21T00:28:01.173Z,30.85
2023-03-21T00:30:59.321Z,30.95
2023-03-21T00:33:45.471Z,26.42
2023-03-21T00:36:32.160Z,27.58
2023-03-21T00:39:18.570Z,34.20
2023-03-21T00:42:04.601Z,23.70
2023-03-21T00:44:50.788Z,23.45
2023-03-21T00:47:37.927Z,15.27
2023-03-21T00:50:28.135Z,21.15
2023-03-21T00:53:15.319Z,15.85
2023-03-21T00:56:01.058Z,12.55
2023-03-21T00:58:46.842Z,20.67
2023-03-21T01:01:35.547Z,16.60
2023-03-21T01:04:27.029Z,14.18
2023-03-21T01:07:12.712Z,14.07
2023-03-21T01:09:58.519Z,18.15
2023-03-21T01:12:47.839Z,14.93
2023-03-21T01:15:37.853Z,14.30
2023-03-21T01:18:28.303Z,17.33
2023-03-21T01:21:14.681Z,15.68
2023-03-21T01:24:01.761Z,12.90
2023-03-21T01:26:48.263Z,17.88
2023-03-21T01:29:34.075Z,34.25
2023-03-21T01:32:19.817Z,146.30
2023-03-21T01:35:06.965Z,170.65
2023-03-21T01:37:59.800Z,87.53
2023-03-21T01:40:49.825Z,58.38
2023-03-21T01:43:41.660Z,62.75
2023-03-21T01:46:51.555Z,68.85
2023-03-21T01:50:14.778Z,72.60
2023-03-21T01:53:22.763Z,62.85
2023-03-21T01:56:12.866Z,46.45
2023-03-21T01:59:32.168Z,40.63
2023-03-21T02:02:25.453Z,40.10
2023-03-21T02:06:01.631Z,28.92
2023-03-21T02:08:53.960Z,29.40
2023-03-21T02:11:39.836Z,34.70
2023-03-21T02:14:29.401Z,37.83
2023-03-21T02:17:42.441Z,43.80
2023-03-21T02:21:01.370Z,41.63
2023-03-21T02:24:37.893Z,35.08
2023-03-21T02:27:25.220Z,34.40
2023-03-21T02:30:49.098Z,36.08
2023-03-21T02:34:01.639Z,38.75
2023-03-21T02:37:08.035Z,37.15
2023-03-21T02:40:09.381Z,30.05
2023-03-21T02:43:01.213Z,37.25
2023-03-21T02:45:56.997Z,27.20
2023-03-21T02:49:11.224Z,37.08
2023-03-21T02:52:12.252Z,28.08
2023-03-21T02:55:01.434Z,32.53
2023-03-21T02:57:56.508Z,31.83
2023-03-21T03:00:44.206Z,26.58
2023-03-21T03:03:34.776Z,32.05
2023-03-21T03:06:44.379Z,33.85
2023-03-21T03:09:30.483Z,32.42
2023-03-21T03:12:43.454Z,28.13
2023-03-21T03:15:33.497Z,29.15
2023-03-21T03:18:43.456Z,41.25
2023-03-21T03:21:48.902Z,39.83
2023-03-21T03:24:43.274Z,32.05
2023-03-21T03:27:41.878Z,33.38
2023-03-21T03:30:39.250Z,33.95
2023-03-21T03:33:29.258Z,35.40
2023-03-21T03:36:33.617Z,35.13
2023-03-21T03:39:30.063Z,24.17
2023-03-21T03:42:27.965Z,26.13
2023-03-21T03:45:35.546Z,37.97
2023-03-21T03:48:26.991Z,102.68
2023-03-21T03:51:51.797Z,96.00
2023-03-21T03:54:58.648Z,45.45
2023-03-21T03:57:45.307Z,36.33
2023-03-21T04:00:34.841Z,37.88
2023-03-21T04:03:22.100Z,31.83
2023-03-21T04:06:08.740Z,28.20
2023-03-21T04:08:56.559Z,30.42
2023-03-21T04:11:42.444Z,32.10
2023-03-21T04:14:35.620Z,45.17
2023-03-21T04:17:26.532Z,44.15
2023-03-21T04:20:20.681Z,40.33
2023-03-21T04:23:19.008Z,41.30
2023-03-21T04:26:06.660Z,39.40
2023-03-21T04:28:56.584Z,46.83
2023-03-21T04:31:42.272Z,34.88
2023-03-21T04:34:31.364Z,42.05
2023-03-21T04:37:23.690Z,83.32
2023-03-21T04:40:11.614Z,64.00
2023-03-21T04:42:57.235Z,35.17
2023-03-21T04:45:43.461Z,33.72
2023-03-21T04:48:29.556Z,37.65
2023-03-21T04:51:17.725Z,48.83
2023-03-21T04:54:04.087Z,37.58
2023-03-21T04:56:52.186Z,37.97
2023-03-21T04:59:38.189Z,37.90
2023-03-21T05:02:23.939Z,55.50
2023-03-21T05:05:11.926Z,42.45
2023-03-21T05:07:57.899Z,33.88
2023-03-21T05:10:43.620Z,31.13
2023-03-21T05:13:29.951Z,32.88
2023-03-21T05:16:15.895Z,35.85
2023-03-21T05:19:03.997Z,43.22
2023-03-21T05:21:53.190Z,37.10
2023-03-21T05:24:42.244Z,40.85
2023-03-21T05:27:36.175Z,37.30
2023-03-21T05:30:29.425Z,39.88
2023-03-21T05:33:17.978Z,36.55
2023-03-21T05:36:03.930Z,47.92
2023-03-21T05:38:51.440Z,44.83
2023-03-21T05:41:37.413Z,49.95
2023-03-21T05:44:24.842Z,46.60
2023-03-21T05:47:11.565Z,50.60
2023-03-21T05:50:04.019Z,53.33
2023-03-21T05:52:51.560Z,56.60
2023-03-21T05:55:39.005Z,54.55
2023-03-21T05:58:29.578Z,55.83
2023-03-21T06:01:15.428Z,86.25
2023-03-21T06:04:08.479Z,73.95
2023-03-21T06:06:55.471Z,71.18
2023-03-21T06:09:42.345Z,57.20
2023-03-21T06:12:28.066Z,39.47
2023-03-21T06:15:44.289Z,62.90
2023-03-21T06:18:37.792Z,48.83
2023-03-21T06:21:53.967Z,61.58
2023-03-21T06:24:40.677Z,39.15
2023-03-21T06:27:26.652Z,48.58
2023-03-21T06:30:14.724Z,49.40
2023-03-21T06:33:12.467Z,22.48
2023-03-21T06:35:58.867Z,19.42
2023-03-21T06:38:45.119Z,18.00
2023-03-21T06:41:31.115Z,20.92
2023-03-21T06:44:24.471Z,14.15
2023-03-21T06:47:17.756Z,16.27
2023-03-21T06:50:07.111Z,18.17
2023-03-21T06:52:59.484Z,16.90
2023-03-21T06:55:51.783Z,14.05
2023-03-21T06:58:39.141Z,25.98
2023-03-21T07:01:31.653Z,16.80
2023-03-21T07:04:24.701Z,20.50
2023-03-21T07:07:11.624Z,26.58
2023-03-21T07:09:57.806Z,17.05
2023-03-21T07:12:45.804Z,31.30
2023-03-21T07:15:53.509Z,26.23
2023-03-21T07:18:39.153Z,15.10
2023-03-21T07:21:25.155Z,17.48
2023-03-21T07:24:12.021Z,14.93
2023-03-21T07:26:57.647Z,19.30
2023-03-21T07:29:44.528Z,19.17
2023-03-21T07:32:33.963Z,17.40
2023-03-21T07:35:19.953Z,26.90
2023-03-21T07:38:06.486Z,31.60
2023-03-21T07:40:52.248Z,12.45
2023-03-21T07:43:39.300Z,17.80
2023-03-21T07:46:28.797Z,18.02
2023-03-21T07:49:14.420Z,25.33
2023-03-21T07:52:04.597Z,26.73
2023-03-21T07:54:50.688Z,16.98
2023-03-21T07:57:36.676Z,12.45
2023-03-21T08:00:23.183Z,23.90
2023-03-21T08:03:09.939Z,17.60
2023-03-21T08:05:56.019Z,31.33
2023-03-21T08:08:41.895Z,32.80
2023-03-21T08:11:31.441Z,12.80
2023-03-21T08:14:17.555Z,44.42
2023-03-21T08:17:07.099Z,18.63
2023-03-21T08:19:52.647Z,18.13
2023-03-21T08:22:38.505Z,29.33
2023-03-21T08:25:24.789Z,32.63
2023-03-21T08:28:10.414Z,17.17
2023-03-21T08:30:56.216Z,20.00
2023-03-21T08:33:42.284Z,16.25
2023-03-21T08:36:28.153Z,19.58
2023-03-21T08:39:14.213Z,18.75
2023-03-21T08:42:00.392Z,16.52
2023-03-21T08:44:46.685Z,15.55
2023-03-21T08:47:33.185Z,18.58
2023-03-21T08:50:21.693Z,24.85
2023-03-21T08:53:07.681Z,22.35
2023-03-21T08:55:53.470Z,21.80
2023-03-21T08:58:39.185Z,16.75
2023-03-21T09:01:26.364Z,14.45
2023-03-21T09:04:12.658Z,17.92
2023-03-21T09:07:01.545Z,19.88
2023-03-21T09:09:53.412Z,15.38
2023-03-21T09:12:44.402Z,15.90
2023-03-21T09:15:30.253Z,12.27
2023-03-21T09:18:18.158Z,16.52
2023-03-21T09:21:13.901Z,15.57
2023-03-21T09:24:00.760Z,15.65
2023-03-21T09:26:46.610Z,9.23
2023-03-21T09:29:33.996Z,10.88
2023-03-21T09:32:20.341Z,16.52
2023-03-21T09:35:07.191Z,22.83
2023-03-21T09:37:53.257Z,15.73
2023-03-21T09:41:01.064Z,25.25
2023-03-21T09:44:15.064Z,11.13
2023-03-21T09:47:20.796Z,13.35
2023-03-21T09:50:20.512Z,24.58
2023-03-21T09:53:06.351Z,13.57
2023-03-21T09:55:54.063Z,12.93
2023-03-21T09:58:44.729Z,14.70
2023-03-21T10:01:41.784Z,17.20
2023-03-21T10:04:27.746Z,13.85
2023-03-21T10:07:18.979Z,27.35
2023-03-21T10:10:06.367Z,17.10
2023-03-21T10:12:53.335Z,15.77
2023-03-21T10:15:39.498Z,25.08
2023-03-21T10:18:28.312Z,17.30
2023-03-21T10:21:47.419Z,14.98
2023-03-21T10:24:30.124Z,15.60
2023-03-21T10:27:16.489Z,11.45
2023-03-21T10:30:02.464Z,17.42
2023-03-21T10:32:48.487Z,9.65
2023-03-21T10:35:37.447Z,8.30
2023-03-21T10:38:25.478Z,9.27
2023-03-21T10:41:14.254Z,16.15
2023-03-21T10:44:15.422Z,14.95
2023-03-21T10:47:08.958Z,31.83
2023-03-21T10:50:07.177Z,13.32
2023-03-21T10:53:00.530Z,9.70
2023-03-21T10:55:49.265Z,24.30
2023-03-21T10:58:39.672Z,11.27
2023-03-21T11:01:44.093Z,12.25
2023-03-21T11:07:24.351Z,19.52
2023-03-21T11:10:35.048Z,17.02
2023-03-21T11:13:26.795Z,21.98
2023-03-21T11:16:24.488Z,15.00
2023-03-21T11:19:19.104Z,16.23
2023-03-21T11:22:07.482Z,11.88
2023-03-21T11:24:59.132Z,11.05
2023-03-21T11:27:50.582Z,43.30
2023-03-21T11:30:36.385Z,12.68
2023-03-21T11:33:24.397Z,12.90
2023-03-21T11:36:19.417Z,16.05
2023-03-21T11:39:11.158Z,11.43
2023-03-21T11:41:56.842Z,9.82
2023-03-21T11:44:44.206Z,17.88
2023-03-21T11:47:31.643Z,13.65
2023-03-21T11:50:37.135Z,11.18
2023-03-21T11:53:46.657Z,15.23
2023-03-21T11:56:36.883Z,9.45
2023-03-21T11:59:35.665Z,8.07
2023-03-21T12:02:55.966Z,13.30
2023-03-21T12:05:54.870Z,20.98
2023-03-21T12:09:02.406Z,12.68
2023-03-21T12:12:10.027Z,13.10
2023-03-21T12:15:20.575Z,16.02
2023-03-21T12:18:10.349Z,18.40
2023-03-21T12:21:04.280Z,14.80
2023-03-21T12:24:01.215Z,23.13
2023-03-21T12:26:58.784Z,14.63
2023-03-21T12:29:53.915Z,21.80
2023-03-21T12:32:49.876Z,17.38
2023-03-21T12:35:47.984Z,15.13
2023-03-21T12:39:09.130Z,20.30
2023-03-21T12:42:09.684Z,16.88
2023-03-21T12:45:17.205Z,12.23
2023-03-21T12:48:21.199Z,10.43
2023-03-21T12:54:10.792Z,14.02
2023-03-21T12:57:15.685Z,13.77
2023-03-21T13:00:15.919Z,9.25
2023-03-21T13:03:12.096Z,15.52
2023-03-21T13:06:03.739Z,24.20
2023-03-21T13:09:08.098Z,14.70
2023-03-21T13:11:57.108Z,15.43
2023-03-21T13:14:57.023Z,15.20
2023-03-21T13:17:49.442Z,24.85
2023-03-21T13:20:46.825Z,25.13
2023-03-21T13:23:37.098Z,16.48
2023-03-21T13:26:39.480Z,20.23
2023-03-21T13:29:35.254Z,22.15
2023-03-21T13:32:39.198Z,35.53
2023-03-21T13:35:38.564Z,128.75
2023-03-21T13:38:30.492Z,16.02
2023-03-21T13:41:23.658Z,13.80
2023-03-21T13:44:22.257Z,20.88
2023-03-21T13:47:34.969Z,16.35
2023-03-21T13:50:30.474Z,19.15
2023-03-21T13:53:16.696Z,18.73
2023-03-21T13:56:14.887Z,21.88
2023-03-21T13:59:03.985Z,25.65
2023-03-21T14:02:23.761Z,31.95
2023-03-21T14:05:22.858Z,19.40
2023-03-21T14:08:21.558Z,14.00
2023-03-21T14:11:17.449Z,15.77
2023-03-21T14:14:04.363Z,11.35
2023-03-21T14:16:53.130Z,12.25
2023-03-21T14:19:39.859Z,19.33
2023-03-21T14:22:27.588Z,16.73
2023-03-21T14:25:16.730Z,15.15
2023-03-21T14:28:05.915Z,14.80
2023-03-21T14:30:54.470Z,13.93
2023-03-21T14:33:41.778Z,9.63
2023-03-21T14:36:30.782Z,9.32
2023-03-21T14:39:53.425Z,17.00
2023-03-21T14:42:39.471Z,25.85
2023-03-21T14:45:29.124Z,9.93
2023-03-21T14:48:17.078Z,13.65
2023-03-21T14:51:05.563Z,13.27
2023-03-21T14:53:51.300Z,10.60
2023-03-21T14:56:38.483Z,11.05
2023-03-21T14:59:26.483Z,15.23
2023-03-21T15:02:18.461Z,19.75
2023-03-21T15:05:37.835Z,12.52
2023-03-21T15:08:26.396Z,14.50
2023-03-21T15:11:13.020Z,11.60
2023-03-21T15:14:15.050Z,19.48
2023-03-21T15:17:04.085Z,11.50
2023-03-21T15:19:50.408Z,22.55
2023-03-21T15:22:39.612Z,15.10
2023-03-21T15:25:32.728Z,22.70
2023-03-21T15:28:19.003Z,21.45
2023-03-21T15:31:07.145Z,17.65
2023-03-21T15:33:53.834Z,13.18
2023-03-21T15:36:46.465Z,18.48
2023-03-21T15:39:52.672Z,17.17
2023-03-21T15:42:41.009Z,13.55
2023-03-21T15:45:30.684Z,18.65
2023-03-21T15:48:17.351Z,15.20
2023-03-21T15:51:05.462Z,13.88
2023-03-21T15:53:54.319Z,20.00
2023-03-21T15:56:42.481Z,13.48
2023-03-21T15:59:32.548Z,23.73
2023-03-21T16:02:22.144Z,11.05
2023-03-21T16:05:29.197Z,13.60
2023-03-21T16:08:22.486Z,19.27
2023-03-21T16:11:24.456Z,18.65
2023-03-21T16:14:10.856Z,33.03
2023-03-21T16:16:59.092Z,13.38
2023-03-21T16:19:45.012Z,25.13
2023-03-21T16:22:34.901Z,19.40
2023-03-21T16:25:20.876Z,22.42
2023-03-21T16:28:13.854Z,20.25
2023-03-21T16:30:59.560Z,18.60
2023-03-21T16:33:45.941Z,18.60
2023-03-21T16:36:36.353Z,17.33
2023-03-21T16:39:24.749Z,17.88
2023-03-21T16:42:12.248Z,25.10
2023-03-21T16:44:58.074Z,25.30
2023-03-21T16:47:44.868Z,17.63
2023-03-21T16:50:37.071Z,22.73
2023-03-21T16:53:22.814Z,19.60
2023-03-21T16:56:55.092Z,18.33
2023-03-21T16:59:44.715Z,20.75
2023-03-21T17:02:30.753Z,18.48
2023-03-21T17:05:16.846Z,20.25
2023-03-21T17:08:02.951Z,14.93
2023-03-21T17:10:48.930Z,20.10
2023-03-21T17:13:35.338Z,18.85
2023-03-21T17:16:26.694Z,20.27
2023-03-21T17:19:24.036Z,19.92
2023-03-21T17:22:11.396Z,20.75
2023-03-21T17:24:58.868Z,19.70
2023-03-21T17:27:45.064Z,17.23
2023-03-21T17:30:33.802Z,20.27
2023-03-21T17:33:19.709Z,44.65
2023-03-21T17:36:05.998Z,41.10
2023-03-21T17:38:52.985Z,28.75
2023-03-21T17:41:38.932Z,58.10
2023-03-21T17:44:25.085Z,57.35
2023-03-21T17:47:11.416Z,26.55
2023-03-21T17:49:57.817Z,20.27
2023-03-21T17:52:43.940Z,20.45
2023-03-21T17:55:30.309Z,19.60
2023-03-21T17:58:17.835Z,19.38
2023-03-21T18:01:03.671Z,17.25
2023-03-21T18:03:50.937Z,18.88
2023-03-21T18:06:37.541Z,29.20
2023-03-21T18:09:23.583Z,16.20
2023-03-21T18:12:09.774Z,21.75
2023-03-21T18:14:56.132Z,23.15
2023-03-21T18:17:42.248Z,16.65
2023-03-21T18:20:49.844Z,16.70
2023-03-21T18:23:34.955Z,15.73
2023-03-21T18:26:23.970Z,17.40
2023-03-21T18:32:17.304Z,16.90
2023-03-21T18:35:04.890Z,36.72
2023-03-21T18:37:50.972Z,17.70
2023-03-21T18:40:37.315Z,27.17
2023-03-21T18:46:30.562Z,24.50
2023-03-21T18:52:24.061Z,21.83
2023-03-21T18:55:10.554Z,18.48
2023-03-21T18:57:56.448Z,24.63
2023-03-21T19:00:43.790Z,24.52
2023-03-21T19:03:37.092Z,17.63
2023-03-21T19:06:25.336Z,18.52
2023-03-21T19:09:14.305Z,14.82
2023-03-21T19:12:02.011Z,18.83
2023-03-21T19:14:50.650Z,16.83
2023-03-21T19:18:23.264Z,22.60
2023-03-21T19:20:44.759Z,21.52
2023-03-21T19:23:43.551Z,22.60
2023-03-21T19:26:37.663Z,20.48
2023-03-21T19:29:23.365Z,15.95
2023-03-21T19:32:09.418Z,19.70
2023-03-21T19:34:55.438Z,21.45
2023-03-21T19:37:41.730Z,18.08
2023-03-21T19:40:28.033Z,26.05
2023-03-21T19:43:32.101Z,16.70
2023-03-21T19:46:20.985Z,20.73
2023-03-21T19:49:07.316Z,19.52
2023-03-21T19:51:53.048Z,20.95
2023-03-21T19:54:39.666Z,19.38
2023-03-21T19:57:25.689Z,15.82
2023-03-21T20:00:11.892Z,21.20
2023-03-21T20:02:57.553Z,16.23
2023-03-21T20:05:43.652Z,20.63
2023-03-21T20:08:42.846Z,18.08
2023-03-21T20:11:36.035Z,21.58
2023-03-21T20:14:22.017Z,19.77
2023-03-21T20:17:08.376Z,20.58
2023-03-21T20:19:57.929Z,21.10
2023-03-21T20:25:50.914Z,18.13
2023-03-21T20:28:38.142Z,22.63
2023-03-21T20:31:25.150Z,19.25
2023-03-21T20:34:11.688Z,17.77
2023-03-21T20:36:58.326Z,18.15
2023-03-21T20:39:44.498Z,22.63
2023-03-21T20:42:30.183Z,19.88
2023-03-21T20:45:18.661Z,19.05
2023-03-21T20:48:06.553Z,22.55
2023-03-21T20:50:57.855Z,22.83
2023-03-21T20:53:47.974Z,17.15
2023-03-21T20:56:33.668Z,19.50
2023-03-21T20:59:26.488Z,17.15
2023-03-21T21:02:13.901Z,21.27
2023-03-21T21:05:27.738Z,20.00
2023-03-21T21:08:19.206Z,16.42
2023-03-21T21:14:12.722Z,16.05
2023-03-21T21:17:02.662Z,15.20
2023-03-21T21:19:54.527Z,18.98
2023-03-21T21:22:42.895Z,17.83
2023-03-21T21:25:33.390Z,13.82
2023-03-21T21:28:21.312Z,18.77
2023-03-21T21:31:12.409Z,18.17
2023-03-21T21:33:59.857Z,26.63
2023-03-21T21:36:48.092Z,17.73
2023-03-21T21:39:35.287Z,14.50
2023-03-21T21:42:21.599Z,15.70
2023-03-21T21:45:09.466Z,16.50
2023-03-21T21:47:55.842Z,21.85
2023-03-21T21:50:42.625Z,23.67
2023-03-21T21:53:29.145Z,26.50
2023-03-21T21:56:14.929Z,23.60
2023-03-21T21:59:03.523Z,17.13
2023-03-21T22:01:51.431Z,17.90
2023-03-21T22:04:37.475Z,20.45
2023-03-21T22:07:27.422Z,15.73
2023-03-21T22:10:13.668Z,17.65
2023-03-21T22:13:00.017Z,21.23
2023-03-21T22:15:46.813Z,23.58
2023-03-21T22:18:36.165Z,33.60
2023-03-21T22:21:22.062Z,21.15
2023-03-21T22:24:08.027Z,20.08
2023-03-21T22:26:58.136Z,16.48
2023-03-21T22:29:44.186Z,16.40
2023-03-21T22:32:33.310Z,21.10
2023-03-21T22:35:19.291Z,16.05
2023-03-21T22:38:05.171Z,16.55
2023-03-21T22:40:58.728Z,12.50
2023-03-21T22:43:44.412Z,16.52
2023-03-21T22:46:30.110Z,19.52
2023-03-21T22:49:16.325Z,17.67
2023-03-21T22:52:03.423Z,16.23
2023-03-21T22:54:49.934Z,15.20
2023-03-21T22:57:36.032Z,14.95
2023-03-21T23:00:21.977Z,16.55
2023-03-21T23:03:07.603Z,20.27
2023-03-21T23:05:56.333Z,29.00
2023-03-21T23:08:42.441Z,19.73
2023-03-21T23:11:28.200Z,17.45
2023-03-21T23:14:15.348Z,15.20
2023-03-21T23:17:02.718Z,16.60
2023-03-21T23:19:48.749Z,20.27
2023-03-21T23:22:35.552Z,12.85
2023-03-21T23:25:22.048Z,13.18
2023-03-21T23:28:08.363Z,18.98
2023-03-21T23:30:55.023Z,16.38
2023-03-21T23:33:40.952Z,20.15
2023-03-21T23:36:26.959Z,17.77
2023-03-21T23:39:12.988Z,17.08
2023-03-21T23:41:58.825Z,20.13
2023-03-21T23:44:44.845Z,23.25
2023-03-21T23:47:31.200Z,19.50
2023-03-21T23:50:17.116Z,19.40
2023-03-21T23:53:02.772Z,30.15
2023-03-21T23:55:52.029Z,18.60
2023-03-21T23:58:37.762Z,19.15
